Torrington, Wyoming
Current Conditions -  °F | °C
As of 12:53 PM on Wednesday 26 Nov 2014 (Local Time) from KTOR Reporting Station
Overcast Overcast  
Wind Chill: 29°   Ceiling: 1700
Heat Index: 29°   Visibility: 10mi
Dew Point: 26°   Wind: 0mph
Humidity: 89%   Direction: NA
Pressure: 30.2"   Gusts: NA
Location:  42.06°N, 104.18°W
Report Text: KTOR 261953Z AUTO 00000KT 10SM SCT009 OVC017 M02/M03 A3020 RMK AO2 SLP259 T10171033
Loading
Personal Weather Stations






























Interactive Weather Map New forecast layout! Learn more

10-Day Weather Forecast

Advertisements
Track Severe Weather on mobile